createdAt,value
2022-10-13T00:11:50.246Z,18.73
2022-10-13T00:14:16.920Z,18.65
2022-10-13T00:16:42.893Z,18.65
2022-10-13T00:19:14.201Z,18.68
2022-10-13T00:21:40.863Z,18.63
2022-10-13T00:24:06.805Z,18.59
2022-10-13T00:26:32.760Z,18.62
2022-10-13T00:28:59.581Z,18.53
2022-10-13T00:31:25.543Z,18.44
2022-10-13T00:33:51.442Z,18.47
2022-10-13T00:36:17.388Z,18.37
2022-10-13T00:38:44.106Z,18.27
2022-10-13T00:41:10.077Z,18.20
2022-10-13T00:43:35.986Z,18.03
2022-10-13T00:46:01.915Z,17.95
2022-10-13T00:48:27.830Z,17.93
2022-10-13T00:50:54.658Z,17.98
2022-10-13T00:53:20.590Z,17.90
2022-10-13T00:55:46.517Z,17.84
2022-10-13T00:58:12.475Z,17.81
2022-10-13T01:00:39.224Z,17.83
2022-10-13T01:03:05.181Z,17.80
2022-10-13T01:05:31.848Z,17.83
2022-10-13T01:07:57.764Z,17.69
2022-10-13T01:10:24.324Z,17.73
2022-10-13T01:12:51.176Z,17.67
2022-10-13T01:15:17.086Z,17.61
2022-10-13T01:17:43.069Z,17.47
2022-10-13T01:20:09.914Z,17.41
2022-10-13T01:22:36.415Z,17.49
2022-10-13T01:25:02.343Z,17.52
2022-10-13T01:27:28.258Z,17.48
2022-10-13T01:29:54.205Z,17.50
2022-10-13T01:32:20.523Z,17.52
2022-10-13T01:34:47.589Z,17.55
2022-10-13T01:37:13.500Z,17.40
2022-10-13T01:39:39.460Z,17.11
2022-10-13T01:42:05.412Z,17.08
2022-10-13T01:44:32.234Z,17.13
2022-10-13T01:46:58.932Z,17.10
2022-10-13T01:49:24.844Z,17.26
2022-10-13T01:51:50.752Z,17.21
2022-10-13T01:54:16.669Z,17.20
2022-10-13T01:56:42.590Z,17.21
2022-10-13T01:59:08.522Z,17.15
2022-10-13T02:01:35.270Z,17.07
2022-10-13T02:04:02.088Z,17.07
2022-10-13T02:06:28.002Z,17.11
2022-10-13T02:08:53.955Z,17.11
2022-10-13T02:11:19.942Z,17.04
2022-10-13T02:13:45.954Z,16.97
2022-10-13T02:16:11.908Z,16.87
2022-10-13T02:18:38.428Z,16.89
2022-10-13T02:21:04.363Z,16.86
2022-10-13T02:23:30.292Z,16.78
2022-10-13T02:25:57.105Z,16.69
2022-10-13T02:28:23.032Z,16.70
2022-10-13T02:30:48.980Z,16.71
2022-10-13T02:33:14.894Z,16.83
2022-10-13T02:35:41.688Z,16.74
2022-10-13T02:38:07.698Z,16.61
2022-10-13T02:40:33.643Z,16.59
2022-10-13T02:42:59.850Z,16.48
2022-10-13T02:45:27.493Z,16.56
2022-10-13T02:47:53.684Z,16.62
2022-10-13T02:50:19.874Z,16.57
2022-10-13T02:52:46.086Z,16.47
2022-10-13T02:55:12.281Z,16.39
2022-10-13T02:57:38.505Z,16.43
2022-10-13T03:00:04.689Z,16.41
2022-10-13T03:02:30.762Z,16.48
2022-10-13T05:02:59.905Z,15.12
2022-10-13T05:05:25.834Z,15.22
2022-10-13T05:07:52.505Z,15.25
2022-10-13T05:10:18.464Z,15.29
2022-10-13T05:12:44.442Z,15.33
2022-10-13T05:15:11.153Z,15.33
2022-10-13T05:17:37.059Z,15.33
2022-10-13T05:20:02.991Z,15.24
2022-10-13T05:22:28.895Z,15.12
2022-10-13T05:24:54.822Z,15.15
2022-10-13T05:27:20.720Z,15.25
2022-10-13T05:29:47.470Z,15.22
2022-10-13T05:32:14.302Z,15.26
2022-10-13T05:34:41.265Z,15.29
2022-10-13T05:37:07.234Z,15.34
2022-10-13T05:39:33.900Z,15.31
2022-10-13T05:42:00.557Z,15.24
2022-10-13T05:44:26.543Z,15.22
2022-10-13T05:46:52.490Z,15.27
2022-10-13T05:49:18.403Z,15.17
2022-10-13T05:51:44.332Z,15.24
2022-10-13T05:54:10.530Z,15.29
2022-10-13T05:56:37.230Z,15.39
2022-10-13T05:59:03.344Z,15.52
2022-10-13T06:01:29.323Z,15.54
2022-10-13T06:03:55.296Z,15.47
2022-10-13T06:06:22.114Z,15.61
2022-10-13T06:08:48.687Z,15.59
2022-10-13T06:11:15.422Z,15.65
2022-10-13T06:13:41.327Z,15.71
2022-10-13T06:16:07.314Z,15.82
2022-10-13T06:18:33.234Z,15.80
2022-10-13T06:20:59.201Z,15.96
2022-10-13T06:23:25.148Z,16.04
2022-10-13T06:25:51.496Z,16.10
2022-10-13T06:28:18.371Z,16.22
2022-10-13T06:30:44.351Z,16.18
2022-10-13T06:33:10.283Z,16.29
2022-10-13T06:35:36.243Z,16.40
2022-10-13T06:38:03.040Z,16.45
2022-10-13T06:40:29.835Z,16.63
2022-10-13T06:42:56.447Z,16.70
2022-10-13T06:45:22.363Z,16.82
2022-10-13T06:47:48.294Z,16.86
2022-10-13T06:50:14.218Z,16.83
2022-10-13T06:52:40.138Z,16.82
2022-10-13T06:55:06.142Z,16.72
2022-10-13T06:57:32.350Z,16.75
2022-10-13T06:59:58.262Z,16.89
2022-10-13T07:02:25.086Z,17.03
2022-10-13T07:04:50.986Z,17.22
2022-10-13T07:07:16.894Z,17.20
2022-10-13T07:09:42.878Z,17.24
2022-10-13T07:12:08.814Z,17.26
2022-10-13T07:14:34.739Z,17.38
2022-10-13T07:17:03.012Z,17.50
2022-10-13T07:19:29.844Z,17.64
2022-10-13T07:21:55.756Z,17.88
2022-10-13T07:24:21.677Z,17.96
2022-10-13T07:26:47.583Z,18.06
2022-10-13T07:29:13.497Z,18.09
2022-10-13T07:31:40.168Z,18.23
2022-10-13T07:34:06.371Z,18.41
2022-10-13T07:36:33.153Z,18.50
2022-10-13T07:38:59.346Z,18.56
2022-10-13T07:41:25.652Z,18.61
2022-10-13T07:43:52.815Z,18.71
2022-10-13T07:46:20.699Z,18.90
2022-10-13T07:48:51.010Z,18.92
2022-10-13T09:54:28.984Z,23.46
2022-10-13T09:56:54.961Z,23.46
2022-10-13T09:59:21.608Z,23.40
2022-10-13T10:01:48.129Z,23.49
2022-10-13T10:04:14.171Z,23.45
2022-10-13T10:06:40.200Z,23.25
2022-10-13T10:09:06.251Z,23.60
2022-10-13T10:11:32.984Z,24.03
2022-10-13T10:13:59.190Z,24.00
2022-10-13T10:16:26.061Z,24.20
2022-10-13T10:18:57.755Z,24.20
2022-10-13T10:21:25.569Z,24.05
2022-10-13T10:23:51.776Z,24.36
2022-10-13T10:26:23.052Z,23.77
2022-10-13T10:28:50.472Z,23.95
2022-10-13T10:31:17.218Z,23.32
2022-10-13T10:33:43.607Z,23.63
2022-10-13T10:36:10.434Z,24.10
2022-10-13T10:38:36.806Z,24.53
2022-10-13T10:41:02.799Z,24.27
2022-10-13T10:43:28.948Z,24.09
2022-10-13T10:45:55.456Z,24.83
2022-10-13T10:48:21.969Z,24.98
2022-10-13T10:50:48.186Z,25.29
2022-10-13T10:53:14.230Z,25.67
2022-10-13T10:55:40.473Z,25.66
2022-10-13T10:58:07.104Z,25.79
2022-10-13T11:00:33.975Z,25.45
2022-10-13T11:03:00.247Z,24.42
2022-10-13T11:05:26.957Z,24.52
2022-10-13T11:07:53.595Z,23.77
2022-10-13T11:10:20.299Z,24.02
2022-10-13T11:12:47.191Z,23.89
2022-10-13T11:15:13.584Z,24.36
2022-10-13T11:17:40.100Z,23.64
2022-10-13T11:20:06.629Z,24.12
2022-10-13T11:22:33.298Z,23.42
2022-10-13T11:24:59.715Z,24.61
2022-10-13T11:27:26.397Z,24.96
2022-10-13T11:29:52.838Z,25.10
2022-10-13T11:32:19.575Z,24.67
2022-10-13T11:34:46.889Z,24.99
2022-10-13T11:37:13.421Z,25.48
2022-10-13T11:39:39.820Z,25.49
2022-10-13T11:42:06.131Z,25.23
2022-10-13T11:44:32.568Z,25.30
2022-10-13T11:46:59.159Z,25.11
2022-10-13T11:49:25.146Z,25.32
2022-10-13T11:51:51.164Z,24.97
2022-10-13T11:54:17.934Z,24.36
2022-10-13T11:56:48.332Z,24.40
2022-10-13T11:59:15.392Z,24.77
2022-10-13T12:01:42.118Z,24.46
2022-10-13T12:04:08.921Z,23.39
2022-10-13T12:06:35.460Z,23.31
2022-10-13T12:09:01.530Z,23.90
2022-10-13T12:11:27.820Z,24.81
2022-10-13T12:13:54.302Z,24.48
2022-10-13T12:16:20.451Z,24.49
2022-10-13T12:18:46.997Z,24.70
2022-10-13T12:21:13.356Z,25.10
2022-10-13T12:23:40.112Z,25.77
2022-10-13T12:26:06.551Z,25.25
2022-10-13T12:28:33.254Z,25.12
2022-10-13T12:30:59.661Z,26.06
2022-10-13T12:33:26.452Z,26.09
2022-10-13T12:35:53.779Z,25.02
2022-10-13T12:57:04.908Z,26.71
2022-10-13T14:37:03.990Z,24.04
2022-10-13T14:39:30.563Z,24.28
2022-10-13T14:41:56.588Z,24.18
2022-10-13T14:44:23.528Z,24.19
2022-10-13T14:46:49.643Z,23.86
2022-10-13T14:49:15.753Z,23.47
2022-10-13T14:51:42.404Z,23.34
2022-10-13T14:54:09.074Z,23.81
2022-10-13T14:56:35.294Z,23.48
2022-10-13T14:59:02.040Z,24.12
2022-10-13T15:01:28.856Z,24.01
2022-10-13T15:03:54.927Z,23.87
2022-10-13T15:06:21.787Z,23.83
2022-10-13T15:08:47.926Z,23.78
2022-10-13T15:11:14.027Z,24.07
2022-10-13T15:13:40.590Z,23.78
2022-10-13T15:16:06.611Z,23.56
2022-10-13T15:18:33.009Z,23.67
2022-10-13T15:20:59.669Z,23.45
2022-10-13T15:23:26.523Z,22.87
2022-10-13T15:25:52.463Z,22.63
2022-10-13T15:28:19.268Z,22.43
2022-10-13T15:30:45.194Z,22.89
2022-10-13T15:33:11.107Z,22.88
2022-10-13T15:35:37.046Z,22.45
2022-10-13T15:38:02.994Z,22.16
2022-10-13T15:40:28.952Z,22.23
2022-10-13T15:42:54.885Z,22.41
2022-10-13T15:45:21.723Z,22.36
2022-10-13T15:47:48.009Z,22.21
2022-10-13T15:50:13.932Z,22.35
2022-10-13T15:52:39.984Z,22.46
2022-10-13T15:55:06.048Z,22.02
2022-10-13T15:57:32.002Z,22.16
2022-10-13T15:59:57.993Z,22.05
2022-10-13T16:02:24.045Z,22.13
2022-10-13T16:04:49.992Z,22.20
2022-10-13T16:07:16.753Z,22.38
2022-10-13T16:09:43.422Z,22.56
2022-10-13T16:12:09.403Z,22.55
2022-10-13T16:14:35.364Z,22.52
2022-10-13T16:17:02.105Z,22.42
2022-10-13T16:19:28.924Z,22.49
2022-10-13T16:21:54.846Z,22.38
2022-10-13T16:24:20.771Z,22.23
2022-10-13T16:26:46.684Z,22.33
2022-10-13T16:29:13.258Z,22.35
2022-10-13T16:31:39.201Z,22.43
2022-10-13T16:34:05.105Z,22.22
2022-10-13T16:36:31.773Z,22.19
2022-10-13T16:38:58.587Z,22.11
2022-10-13T16:41:24.491Z,21.91
2022-10-13T16:43:50.432Z,22.02
2022-10-13T16:46:17.021Z,21.95
2022-10-13T16:48:42.980Z,21.98
2022-10-13T16:51:09.758Z,22.03
2022-10-13T16:53:35.668Z,22.01
2022-10-13T16:56:01.597Z,21.88
2022-10-13T16:58:27.537Z,21.83
2022-10-13T17:00:53.533Z,21.79
2022-10-13T17:03:20.388Z,21.64
2022-10-13T17:05:46.294Z,21.55
2022-10-13T17:08:12.209Z,21.58
2022-10-13T17:10:38.434Z,21.53
2022-10-13T17:13:04.634Z,21.43
2022-10-13T17:15:30.841Z,21.35
2022-10-13T17:17:57.073Z,21.33
2022-10-13T17:20:23.618Z,21.29
2022-10-13T17:22:49.892Z,21.25
2022-10-13T17:27:56.701Z,21.19
2022-10-13T19:29:48.080Z,19.90
2022-10-13T19:32:14.218Z,19.90
2022-10-13T19:34:41.101Z,19.82
2022-10-13T19:37:07.526Z,19.76
2022-10-13T19:39:33.439Z,19.75
2022-10-13T19:41:59.412Z,19.68
2022-10-13T19:44:26.182Z,19.57
2022-10-13T19:46:52.184Z,19.40
2022-10-13T19:49:18.826Z,19.35
2022-10-13T19:51:44.747Z,19.29
2022-10-13T19:54:10.778Z,19.29
2022-10-13T19:56:36.679Z,19.28
2022-10-13T19:59:02.610Z,19.25
2022-10-13T20:01:28.517Z,19.20
2022-10-13T20:03:54.491Z,19.21
2022-10-13T20:06:20.444Z,19.25
2022-10-13T20:08:46.382Z,19.17
2022-10-13T20:11:12.298Z,19.07
2022-10-13T20:13:38.201Z,19.14
2022-10-13T20:16:04.124Z,19.12
2022-10-13T20:18:30.026Z,19.16
2022-10-13T20:20:56.034Z,19.08
2022-10-13T20:23:22.281Z,19.05
2022-10-13T20:25:48.772Z,19.12
2022-10-13T20:28:14.713Z,19.12
2022-10-13T20:30:40.650Z,19.07
2022-10-13T20:33:06.724Z,19.03
2022-10-13T20:35:33.447Z,19.02
2022-10-13T20:37:59.378Z,19.08
2022-10-13T20:40:25.278Z,19.03
2022-10-13T20:42:51.297Z,18.87
2022-10-13T20:45:17.231Z,18.61
2022-10-13T20:47:44.079Z,18.57
2022-10-13T20:50:10.018Z,18.62
2022-10-13T20:52:35.930Z,18.67
2022-10-13T20:55:01.881Z,18.72
2022-10-13T20:57:28.655Z,18.77
2022-10-13T20:59:54.585Z,18.83
2022-10-13T21:02:23.519Z,18.72
2022-10-13T21:04:49.516Z,18.44
2022-10-13T21:07:16.206Z,18.31
2022-10-13T21:09:42.115Z,18.35
2022-10-13T21:12:08.042Z,18.43
2022-10-13T21:14:33.984Z,18.43
2022-10-13T21:16:59.960Z,18.45
2022-10-13T21:19:25.885Z,18.58
2022-10-13T21:21:52.350Z,18.62
2022-10-13T21:24:18.286Z,18.62
2022-10-13T21:26:44.236Z,18.63
2022-10-13T21:29:10.145Z,18.68
2022-10-13T21:31:37.020Z,18.72
2022-10-13T21:34:03.681Z,18.84
2022-10-13T21:36:29.618Z,18.88
2022-10-13T21:38:55.549Z,18.94
2022-10-13T21:41:21.474Z,19.00
2022-10-13T21:43:47.442Z,19.00
2022-10-13T21:46:13.361Z,18.84
2022-10-13T21:48:39.303Z,18.89
2022-10-13T21:51:05.227Z,18.99
2022-10-13T21:53:31.596Z,19.07
2022-10-13T21:55:58.168Z,19.09
2022-10-13T21:58:24.082Z,19.11
2022-10-13T22:00:50.102Z,19.13
2022-10-13T22:03:16.049Z,19.15
2022-10-13T22:05:43.701Z,19.10
2022-10-13T22:08:09.909Z,19.13
2022-10-13T22:10:36.193Z,19.09
2022-10-13T22:13:02.402Z,19.03
2022-10-13T22:15:28.611Z,19.01
